sensor_id;sensor_type;location;lat;lon;timestamp;temperature;humidity
76897;SHT30;65856;52.178;21.176;2024-03-23T00:52:27;10.40;80.82
76897;SHT30;65856;52.178;21.176;2024-03-23T00:54:52;10.37;80.94
76897;SHT30;65856;52.178;21.176;2024-03-23T00:57:18;10.36;81.01
76897;SHT30;65856;52.178;21.176;2024-03-23T00:59:43;10.34;81.07
76897;SHT30;65856;52.178;21.176;2024-03-23T01:02:08;10.34;81.15
76897;SHT30;65856;52.178;21.176;2024-03-23T01:04:34;10.30;81.21
76897;SHT30;65856;52.178;21.176;2024-03-23T01:06:59;10.29;81.30
76897;SHT30;65856;52.178;21.176;2024-03-23T01:09:25;10.29;81.38
76897;SHT30;65856;52.178;21.176;2024-03-23T01:11:50;10.27;81.47
76897;SHT30;65856;52.178;21.176;2024-03-23T01:14:16;10.24;81.61
76897;SHT30;65856;52.178;21.176;2024-03-23T01:16:41;10.23;81.67
76897;SHT30;65856;52.178;21.176;2024-03-23T01:19:06;10.23;81.70
76897;SHT30;65856;52.178;21.176;2024-03-23T01:21:32;10.23;81.72
76897;SHT30;65856;52.178;21.176;2024-03-23T01:23:58;10.25;81.80
76897;SHT30;65856;52.178;21.176;2024-03-23T01:26:23;10.22;81.90
76897;SHT30;65856;52.178;21.176;2024-03-23T01:28:49;10.18;81.98
76897;SHT30;65856;52.178;21.176;2024-03-23T01:31:14;10.19;82.07
76897;SHT30;65856;52.178;21.176;2024-03-23T01:33:41;10.19;82.18
76897;SHT30;65856;52.178;21.176;2024-03-23T01:36:06;10.17;82.20
76897;SHT30;65856;52.178;21.176;2024-03-23T01:38:33;10.17;82.22
76897;SHT30;65856;52.178;21.176;2024-03-23T01:40:59;10.19;82.28
76897;SHT30;65856;52.178;21.176;2024-03-23T01:43:24;10.18;82.30
76897;SHT30;65856;52.178;21.176;2024-03-23T01:45:50;10.20;82.34
76897;SHT30;65856;52.178;21.176;2024-03-23T01:48:18;10.21;82.37
76897;SHT30;65856;52.178;21.176;2024-03-23T01:50:47;10.22;82.40
76897;SHT30;65856;52.178;21.176;2024-03-23T01:53:13;10.20;82.42
76897;SHT30;65856;52.178;21.176;2024-03-23T01:55:42;10.21;82.48
76897;SHT30;65856;52.178;21.176;2024-03-23T01:58:08;10.21;82.49
76897;SHT30;65856;52.178;21.176;2024-03-23T02:00:34;10.22;82.50
76897;SHT30;65856;52.178;21.176;2024-03-23T02:02:59;10.22;82.53
76897;SHT30;65856;52.178;21.176;2024-03-23T02:05:25;10.23;82.60
76897;SHT30;65856;52.178;21.176;2024-03-23T02:07:50;10.22;82.61
76897;SHT30;65856;52.178;21.176;2024-03-23T02:10:16;10.21;82.61
76897;SHT30;65856;52.178;21.176;2024-03-23T02:12:41;10.20;82.72
76897;SHT30;65856;52.178;21.176;2024-03-23T02:15:07;10.20;82.78
76897;SHT30;65856;52.178;21.176;2024-03-23T02:17:35;10.21;82.80
76897;SHT30;65856;52.178;21.176;2024-03-23T02:20:02;10.22;82.80
76897;SHT30;65856;52.178;21.176;2024-03-23T02:22:37;10.24;82.80
76897;SHT30;65856;52.178;21.176;2024-03-23T02:25:06;10.24;82.82
76897;SHT30;65856;52.178;21.176;2024-03-23T02:27:32;10.24;82.87
76897;SHT30;65856;52.178;21.176;2024-03-23T02:29:59;10.24;82.90
76897;SHT30;65856;52.178;21.176;2024-03-23T02:32:25;10.26;82.90
76897;SHT30;65856;52.178;21.176;2024-03-23T02:34:51;10.26;82.90
76897;SHT30;65856;52.178;21.176;2024-03-23T02:37:16;10.28;82.90
76897;SHT30;65856;52.178;21.176;2024-03-23T02:39:42;10.28;82.91
76897;SHT30;65856;52.178;21.176;2024-03-23T02:42:07;10.28;82.96
76897;SHT30;65856;52.178;21.176;2024-03-23T02:44:32;10.29;83.00
76897;SHT30;65856;52.178;21.176;2024-03-23T02:46:58;10.29;83.00
76897;SHT30;65856;52.178;21.176;2024-03-23T02:49:23;10.29;83.00
76897;SHT30;65856;52.178;21.176;2024-03-23T02:51:50;10.30;83.01
76897;SHT30;65856;52.178;21.176;2024-03-23T02:54:15;10.30;83.05
76897;SHT30;65856;52.178;21.176;2024-03-23T02:56:41;10.31;83.11
76897;SHT30;65856;52.178;21.176;2024-03-23T02:59:06;10.30;83.13
76897;SHT30;65856;52.178;21.176;2024-03-23T03:01:31;10.28;83.20
76897;SHT30;65856;52.178;21.176;2024-03-23T03:03:57;10.28;83.29
76897;SHT30;65856;52.178;21.176;2024-03-23T03:06:25;10.29;83.29
76897;SHT30;65856;52.178;21.176;2024-03-23T03:08:51;10.30;83.30
76897;SHT30;65856;52.178;21.176;2024-03-23T03:11:17;10.32;83.30
76897;SHT30;65856;52.178;21.176;2024-03-23T03:13:44;10.33;83.31
76897;SHT30;65856;52.178;21.176;2024-03-23T03:16:09;10.34;83.32
76897;SHT30;65856;52.178;21.176;2024-03-23T03:18:36;10.33;83.40
76897;SHT30;65856;52.178;21.176;2024-03-23T03:21:01;10.34;83.40
76897;SHT30;65856;52.178;21.176;2024-03-23T03:23:27;10.35;83.45
76897;SHT30;65856;52.178;21.176;2024-03-23T03:25:54;10.35;83.44
76897;SHT30;65856;52.178;21.176;2024-03-23T03:28:19;10.35;83.49
76897;SHT30;65856;52.178;21.176;2024-03-23T03:30:46;10.35;83.50
76897;SHT30;65856;52.178;21.176;2024-03-23T03:33:12;10.35;83.59
76897;SHT30;65856;52.178;21.176;2024-03-23T03:35:37;10.34;83.60
76897;SHT30;65856;52.178;21.176;2024-03-23T03:38:04;10.35;83.60
76897;SHT30;65856;52.178;21.176;2024-03-23T03:40:30;10.35;83.66
76897;SHT30;65856;52.178;21.176;2024-03-23T03:42:55;10.36;83.70
76897;SHT30;65856;52.178;21.176;2024-03-23T03:45:21;10.37;83.70
76897;SHT30;65856;52.178;21.176;2024-03-23T03:47:46;10.38;83.70
76897;SHT30;65856;52.178;21.176;2024-03-23T03:50:12;10.39;83.71
76897;SHT30;65856;52.178;21.176;2024-03-23T03:52:37;10.39;83.77
76897;SHT30;65856;52.178;21.176;2024-03-23T03:55:03;10.37;83.80
76897;SHT30;65856;52.178;21.176;2024-03-23T03:57:29;10.38;83.86
76897;SHT30;65856;52.178;21.176;2024-03-23T03:59:54;10.37;83.90
76897;SHT30;65856;52.178;21.176;2024-03-23T04:02:20;10.37;83.95
76897;SHT30;65856;52.178;21.176;2024-03-23T04:04:45;10.37;84.00
76897;SHT30;65856;52.178;21.176;2024-03-23T04:07:10;10.36;84.00
76897;SHT30;65856;52.178;21.176;2024-03-23T04:09:36;10.36;84.02
76897;SHT30;65856;52.178;21.176;2024-03-23T04:12:01;10.36;84.05
76897;SHT30;65856;52.178;21.176;2024-03-23T04:14:27;10.38;84.10
76897;SHT30;65856;52.178;21.176;2024-03-23T04:16:52;10.37;84.10
76897;SHT30;65856;52.178;21.176;2024-03-23T04:19:18;10.37;84.12
76897;SHT30;65856;52.178;21.176;2024-03-23T04:21:43;10.37;84.12
76897;SHT30;65856;52.178;21.176;2024-03-23T04:24:08;10.38;84.18
76897;SHT30;65856;52.178;21.176;2024-03-23T04:26:43;10.40;84.16
76897;SHT30;65856;52.178;21.176;2024-03-23T04:29:08;10.42;84.11
76897;SHT30;65856;52.178;21.176;2024-03-23T04:31:34;10.41;84.11
76897;SHT30;65856;52.178;21.176;2024-03-23T04:34:02;10.42;84.12
76897;SHT30;65856;52.178;21.176;2024-03-23T04:36:28;10.42;84.18
76897;SHT30;65856;52.178;21.176;2024-03-23T04:38:53;10.42;84.20
76897;SHT30;65856;52.178;21.176;2024-03-23T04:41:24;10.41;84.21
76897;SHT30;65856;52.178;21.176;2024-03-23T04:43:50;10.41;84.26
76897;SHT30;65856;52.178;21.176;2024-03-23T04:46:18;10.40;84.27
76897;SHT30;65856;52.178;21.176;2024-03-23T04:48:45;10.39;84.30
76897;SHT30;65856;52.178;21.176;2024-03-23T04:51:11;10.39;84.30
76897;SHT30;65856;52.178;21.176;2024-03-23T04:53:46;10.40;84.31
76897;SHT30;65856;52.178;21.176;2024-03-23T04:56:13;10.41;84.30
76897;SHT30;65856;52.178;21.176;2024-03-23T04:58:39;10.41;84.30
76897;SHT30;65856;52.178;21.176;2024-03-23T05:01:05;10.40;84.30
76897;SHT30;65856;52.178;21.176;2024-03-23T05:03:30;10.40;84.31
76897;SHT30;65856;52.178;21.176;2024-03-23T05:05:56;10.41;84.33
76897;SHT30;65856;52.178;21.176;2024-03-23T05:08:21;10.41;84.31
76897;SHT30;65856;52.178;21.176;2024-03-23T05:10:47;10.43;84.32
76897;SHT30;65856;52.178;21.176;2024-03-23T05:13:13;10.43;84.34
76897;SHT30;65856;52.178;21.176;2024-03-23T05:15:38;10.43;84.39
76897;SHT30;65856;52.178;21.176;2024-03-23T05:18:04;10.43;84.41
76897;SHT30;65856;52.178;21.176;2024-03-23T05:20:30;10.43;84.46
76897;SHT30;65856;52.178;21.176;2024-03-23T05:22:56;10.43;84.47
76897;SHT30;65856;52.178;21.176;2024-03-23T05:25:22;10.44;84.50
76897;SHT30;65856;52.178;21.176;2024-03-23T05:27:48;10.44;84.46
76897;SHT30;65856;52.178;21.176;2024-03-23T05:30:13;10.45;84.49
76897;SHT30;65856;52.178;21.176;2024-03-23T05:32:39;10.45;84.50
76897;SHT30;65856;52.178;21.176;2024-03-23T05:35:06;10.46;84.50
76897;SHT30;65856;52.178;21.176;2024-03-23T05:37:33;10.46;84.49
76897;SHT30;65856;52.178;21.176;2024-03-23T05:40:02;10.47;84.50
76897;SHT30;65856;52.178;21.176;2024-03-23T05:42:28;10.48;84.48
76897;SHT30;65856;52.178;21.176;2024-03-23T05:44:54;10.48;84.49
76897;SHT30;65856;52.178;21.176;2024-03-23T05:47:20;10.48;84.50
76897;SHT30;65856;52.178;21.176;2024-03-23T05:49:45;10.49;84.50
76897;SHT30;65856;52.178;21.176;2024-03-23T05:52:11;10.49;84.50
76897;SHT30;65856;52.178;21.176;2024-03-23T05:54:38;10.50;84.50
76897;SHT30;65856;52.178;21.176;2024-03-23T05:57:03;10.51;84.50
76897;SHT30;65856;52.178;21.176;2024-03-23T05:59:32;10.52;84.48
76897;SHT30;65856;52.178;21.176;2024-03-23T06:01:57;10.52;84.49
76897;SHT30;65856;52.178;21.176;2024-03-23T06:04:23;10.51;84.48
76897;SHT30;65856;52.178;21.176;2024-03-23T06:06:48;10.51;84.50
76897;SHT30;65856;52.178;21.176;2024-03-23T06:09:14;10.50;84.50
76897;SHT30;65856;52.178;21.176;2024-03-23T06:11:39;10.51;84.52
76897;SHT30;65856;52.178;21.176;2024-03-23T06:14:05;10.49;84.54
76897;SHT30;65856;52.178;21.176;2024-03-23T06:16:31;10.47;84.59
76897;SHT30;65856;52.178;21.176;2024-03-23T06:18:56;10.47;84.60
76897;SHT30;65856;52.178;21.176;2024-03-23T06:21:22;10.49;84.70
76897;SHT30;65856;52.178;21.176;2024-03-23T06:23:50;10.50;84.69
76897;SHT30;65856;52.178;21.176;2024-03-23T06:26:18;10.51;84.70
76897;SHT30;65856;52.178;21.176;2024-03-23T06:28:44;10.51;84.70
76897;SHT30;65856;52.178;21.176;2024-03-23T06:31:10;10.55;84.73
76897;SHT30;65856;52.178;21.176;2024-03-23T06:33:36;10.54;84.70
76897;SHT30;65856;52.178;21.176;2024-03-23T06:36:02;10.53;84.70
76897;SHT30;65856;52.178;21.176;2024-03-23T06:38:32;10.53;84.71
76897;SHT30;65856;52.178;21.176;2024-03-23T06:40:57;10.52;84.70
76897;SHT30;65856;52.178;21.176;2024-03-23T06:43:23;10.54;84.71
76897;SHT30;65856;52.178;21.176;2024-03-23T06:45:52;10.55;84.70
76897;SHT30;65856;52.178;21.176;2024-03-23T06:48:19;10.54;84.71
76897;SHT30;65856;52.178;21.176;2024-03-23T06:50:45;10.56;84.72
76897;SHT30;65856;52.178;21.176;2024-03-23T06:53:14;10.56;84.72
76897;SHT30;65856;52.178;21.176;2024-03-23T06:55:40;10.56;84.77
76897;SHT30;65856;52.178;21.176;2024-03-23T06:58:07;10.55;84.80
76897;SHT30;65856;52.178;21.176;2024-03-23T07:00:33;10.51;84.80
76897;SHT30;65856;52.178;21.176;2024-03-23T07:02:59;10.50;84.82
76897;SHT30;65856;52.178;21.176;2024-03-23T07:05:25;10.49;84.89
76897;SHT30;65856;52.178;21.176;2024-03-23T07:07:51;10.50;84.96
76897;SHT30;65856;52.178;21.176;2024-03-23T07:10:16;10.49;84.99
76897;SHT30;65856;52.178;21.176;2024-03-23T07:12:42;10.47;85.04
76897;SHT30;65856;52.178;21.176;2024-03-23T07:15:08;10.46;85.10
76897;SHT30;65856;52.178;21.176;2024-03-23T07:17:34;10.46;85.15
76897;SHT30;65856;52.178;21.176;2024-03-23T07:20:00;10.47;85.23
76897;SHT30;65856;52.178;21.176;2024-03-23T07:22:29;10.47;85.28
76897;SHT30;65856;52.178;21.176;2024-03-23T07:25:01;10.50;85.31
76897;SHT30;65856;52.178;21.176;2024-03-23T07:27:27;10.50;85.39
76897;SHT30;65856;52.178;21.176;2024-03-23T07:29:52;10.50;85.40
76897;SHT30;65856;52.178;21.176;2024-03-23T07:32:18;10.52;85.41
76897;SHT30;65856;52.178;21.176;2024-03-23T07:34:43;10.52;85.51
76897;SHT30;65856;52.178;21.176;2024-03-23T07:37:09;10.52;85.56
76897;SHT30;65856;52.178;21.176;2024-03-23T07:39:35;10.48;85.62
76897;SHT30;65856;52.178;21.176;2024-03-23T07:42:01;10.48;85.66
76897;SHT30;65856;52.178;21.176;2024-03-23T07:44:27;10.49;85.68
76897;SHT30;65856;52.178;21.176;2024-03-23T07:46:52;10.50;85.70
76897;SHT30;65856;52.178;21.176;2024-03-23T07:49:18;10.48;85.77
76897;SHT30;65856;52.178;21.176;2024-03-23T07:51:43;10.48;85.80
76897;SHT30;65856;52.178;21.176;2024-03-23T07:54:09;10.47;85.80
76897;SHT30;65856;52.178;21.176;2024-03-23T07:56:35;10.47;85.80
76897;SHT30;65856;52.178;21.176;2024-03-23T07:59:01;10.47;85.87
76897;SHT30;65856;52.178;21.176;2024-03-23T08:01:28;10.47;85.85
76897;SHT30;65856;52.178;21.176;2024-03-23T08:03:54;10.45;85.90
76897;SHT30;65856;52.178;21.176;2024-03-23T08:06:19;10.43;85.89
76897;SHT30;65856;52.178;21.176;2024-03-23T08:08:47;10.45;85.93
76897;SHT30;65856;52.178;21.176;2024-03-23T08:11:24;10.46;85.98
76897;SHT30;65856;52.178;21.176;2024-03-23T08:13:59;10.46;86.00
76897;SHT30;65856;52.178;21.176;2024-03-23T08:16:24;10.44;86.06
76897;SHT30;65856;52.178;21.176;2024-03-23T08:18:53;10.47;86.12
76897;SHT30;65856;52.178;21.176;2024-03-23T08:21:22;10.49;86.27
76897;SHT30;65856;52.178;21.176;2024-03-23T08:23:47;10.54;86.36
76897;SHT30;65856;52.178;21.176;2024-03-23T08:26:15;10.59;86.42
76897;SHT30;65856;52.178;21.176;2024-03-23T08:28:41;10.66;86.45
76897;SHT30;65856;52.178;21.176;2024-03-23T08:31:07;10.73;86.53
76897;SHT30;65856;52.178;21.176;2024-03-23T08:33:35;10.79;86.52
76897;SHT30;65856;52.178;21.176;2024-03-23T08:36:01;10.83;86.46
76897;SHT30;65856;52.178;21.176;2024-03-23T08:38:29;10.87;86.40
76897;SHT30;65856;52.178;21.176;2024-03-23T08:41:08;10.89;86.27
76897;SHT30;65856;52.178;21.176;2024-03-23T08:43:35;10.91;86.13
76897;SHT30;65856;52.178;21.176;2024-03-23T08:46:03;10.91;86.01
76897;SHT30;65856;52.178;21.176;2024-03-23T08:48:40;10.95;85.96
76897;SHT30;65856;52.178;21.176;2024-03-23T08:51:11;11.02;85.90
76897;SHT30;65856;52.178;21.176;2024-03-23T08:53:38;11.13;85.94
76897;SHT30;65856;52.178;21.176;2024-03-23T08:56:06;11.24;85.95
76897;SHT30;65856;52.178;21.176;2024-03-23T08:58:33;11.40;85.99
76897;SHT30;65856;52.178;21.176;2024-03-23T09:01:12;11.61;86.02
76897;SHT30;65856;52.178;21.176;2024-03-23T09:03:39;11.78;85.81
76897;SHT30;65856;52.178;21.176;2024-03-23T09:06:09;11.90;85.52
76897;SHT30;65856;52.178;21.176;2024-03-23T09:08:36;12.00;85.13
76897;SHT30;65856;52.178;21.176;2024-03-23T09:11:06;12.15;84.95
76897;SHT30;65856;52.178;21.176;2024-03-23T09:13:33;12.26;84.66
76897;SHT30;65856;52.178;21.176;2024-03-23T09:15:59;12.35;84.52
76897;SHT30;65856;52.178;21.176;2024-03-23T09:18:25;12.47;84.21
76897;SHT30;65856;52.178;21.176;2024-03-23T09:20:51;12.55;83.79
76897;SHT30;65856;52.178;21.176;2024-03-23T09:23:18;12.59;83.55
76897;SHT30;65856;52.178;21.176;2024-03-23T09:25:44;12.62;83.26
76897;SHT30;65856;52.178;21.176;2024-03-23T09:28:09;12.68;83.20
76897;SHT30;65856;52.178;21.176;2024-03-23T09:30:35;12.73;83.08
76897;SHT30;65856;52.178;21.176;2024-03-23T09:33:07;12.79;82.77
76897;SHT30;65856;52.178;21.176;2024-03-23T09:35:36;12.95;82.83
76897;SHT30;65856;52.178;21.176;2024-03-23T09:38:05;13.19;82.57
76897;SHT30;65856;52.178;21.176;2024-03-23T09:40:32;13.35;81.85
76897;SHT30;65856;52.178;21.176;2024-03-23T09:42:58;13.39;81.20
76897;SHT30;65856;52.178;21.176;2024-03-23T09:45:28;13.43;81.06
76897;SHT30;65856;52.178;21.176;2024-03-23T09:47:54;13.40;80.43
76897;SHT30;65856;52.178;21.176;2024-03-23T09:50:20;13.45;80.68
76897;SHT30;65856;52.178;21.176;2024-03-23T09:52:46;13.47;80.00
76897;SHT30;65856;52.178;21.176;2024-03-23T09:55:12;13.46;80.17
76897;SHT30;65856;52.178;21.176;2024-03-23T09:57:39;13.43;79.51
76897;SHT30;65856;52.178;21.176;2024-03-23T10:00:05;13.39;79.55
76897;SHT30;65856;52.178;21.176;2024-03-23T10:02:34;13.37;79.55
76897;SHT30;65856;52.178;21.176;2024-03-23T10:05:00;13.36;79.27
76897;SHT30;65856;52.178;21.176;2024-03-23T10:07:26;13.30;78.84
76897;SHT30;65856;52.178;21.176;2024-03-23T10:09:53;13.31;79.18
76897;SHT30;65856;52.178;21.176;2024-03-23T10:12:19;13.36;79.13
76897;SHT30;65856;52.178;21.176;2024-03-23T10:14:45;13.40;78.73
76897;SHT30;65856;52.178;21.176;2024-03-23T10:17:15;13.44;78.76
76897;SHT30;65856;52.178;21.176;2024-03-23T10:19:45;13.57;78.53
76897;SHT30;65856;52.178;21.176;2024-03-23T10:22:19;13.74;78.08
76897;SHT30;65856;52.178;21.176;2024-03-23T10:24:51;13.93;77.76
76897;SHT30;65856;52.178;21.176;2024-03-23T10:27:19;14.13;76.92
76897;SHT30;65856;52.178;21.176;2024-03-23T10:29:46;14.25;76.42
76897;SHT30;65856;52.178;21.176;2024-03-23T10:32:13;14.36;75.92
76897;SHT30;65856;52.178;21.176;2024-03-23T10:34:40;14.49;75.73
76897;SHT30;65856;52.178;21.176;2024-03-23T10:37:06;14.63;75.79
76897;SHT30;65856;52.178;21.176;2024-03-23T10:39:33;14.76;74.68
76897;SHT30;65856;52.178;21.176;2024-03-23T10:42:03;14.80;74.04
76897;SHT30;65856;52.178;21.176;2024-03-23T10:44:33;14.82;73.74
76897;SHT30;65856;52.178;21.176;2024-03-23T10:47:03;14.76;73.38
76897;SHT30;65856;52.178;21.176;2024-03-23T10:49:33;14.73;73.43
76897;SHT30;65856;52.178;21.176;2024-03-23T10:52:00;14.77;72.94
76897;SHT30;65856;52.178;21.176;2024-03-23T10:54:29;14.82;73.00
76897;SHT30;65856;52.178;21.176;2024-03-23T10:57:17;14.92;72.87
76897;SHT30;65856;52.178;21.176;2024-03-23T10:59:50;15.06;72.29
76897;SHT30;65856;52.178;21.176;2024-03-23T11:02:19;15.14;71.93
76897;SHT30;65856;52.178;21.176;2024-03-23T11:04:46;15.26;71.95
76897;SHT30;65856;52.178;21.176;2024-03-23T11:09:52;15.48;70.39
76897;SHT30;65856;52.178;21.176;2024-03-23T11:12:25;15.51;69.92
76897;SHT30;65856;52.178;21.176;2024-03-23T11:15:02;15.57;69.82
76897;SHT30;65856;52.178;21.176;2024-03-23T11:17:31;15.63;69.13
76897;SHT30;65856;52.178;21.176;2024-03-23T11:20:00;15.66;69.15
76897;SHT30;65856;52.178;21.176;2024-03-23T11:22:43;15.69;69.28
76897;SHT30;65856;52.178;21.176;2024-03-23T11:25:19;15.77;69.51
76897;SHT30;65856;52.178;21.176;2024-03-23T11:27:51;15.79;68.44
76897;SHT30;65856;52.178;21.176;2024-03-23T11:30:25;15.84;68.60
76897;SHT30;65856;52.178;21.176;2024-03-23T11:32:56;15.90;68.33
76897;SHT30;65856;52.178;21.176;2024-03-23T11:38:12;15.99;67.45
76897;SHT30;65856;52.178;21.176;2024-03-23T11:40:43;16.00;67.93
76897;SHT30;65856;52.178;21.176;2024-03-23T11:43:14;16.09;67.53
76897;SHT30;65856;52.178;21.176;2024-03-23T11:48:18;16.17;68.17
76897;SHT30;65856;52.178;21.176;2024-03-23T11:50:49;16.22;67.43
76897;SHT30;65856;52.178;21.176;2024-03-23T11:53:20;16.28;67.56
76897;SHT30;65856;52.178;21.176;2024-03-23T11:55:50;16.40;67.39
76897;SHT30;65856;52.178;21.176;2024-03-23T11:58:26;16.42;66.34
76897;SHT30;65856;52.178;21.176;2024-03-23T12:00:54;16.42;65.93
76897;SHT30;65856;52.178;21.176;2024-03-23T12:03:28;16.48;66.42
76897;SHT30;65856;52.178;21.176;2024-03-23T12:05:58;16.58;66.41
76897;SHT30;65856;52.178;21.176;2024-03-23T12:08:33;16.69;65.96
76897;SHT30;65856;52.178;21.176;2024-03-23T12:11:07;16.74;64.71
76897;SHT30;65856;52.178;21.176;2024-03-23T12:13:38;16.74;65.05
76897;SHT30;65856;52.178;21.176;2024-03-23T12:16:10;16.80;64.53
76897;SHT30;65856;52.178;21.176;2024-03-23T12:18:37;16.90;64.06
76897;SHT30;65856;52.178;21.176;2024-03-23T12:21:05;17.03;63.24
76897;SHT30;65856;52.178;21.176;2024-03-23T12:23:30;17.15;63.05
76897;SHT30;65856;52.178;21.176;2024-03-23T12:25:57;17.23;62.42
76897;SHT30;65856;52.178;21.176;2024-03-23T12:28:23;17.28;61.34
76897;SHT30;65856;52.178;21.176;2024-03-23T12:30:49;17.31;61.09
76897;SHT30;65856;52.178;21.176;2024-03-23T12:33:14;17.30;60.49
76897;SHT30;65856;52.178;21.176;2024-03-23T12:35:40;17.25;59.91
76897;SHT30;65856;52.178;21.176;2024-03-23T12:38:05;17.22;60.29
76897;SHT30;65856;52.178;21.176;2024-03-23T12:40:30;17.18;59.84
76897;SHT30;65856;52.178;21.176;2024-03-23T12:42:56;17.16;59.66
76897;SHT30;65856;52.178;21.176;2024-03-23T12:45:22;17.12;59.61
76897;SHT30;65856;52.178;21.176;2024-03-23T12:47:48;17.09;59.72
76897;SHT30;65856;52.178;21.176;2024-03-23T12:50:13;17.05;59.42
76897;SHT30;65856;52.178;21.176;2024-03-23T12:52:39;17.01;59.66
76897;SHT30;65856;52.178;21.176;2024-03-23T12:55:04;16.96;58.83
76897;SHT30;65856;52.178;21.176;2024-03-23T12:57:31;16.88;59.37
76897;SHT30;65856;52.178;21.176;2024-03-23T12:59:57;16.84;59.12
76897;SHT30;65856;52.178;21.176;2024-03-23T13:02:24;16.78;59.25
76897;SHT30;65856;52.178;21.176;2024-03-23T13:04:50;16.74;59.34
76897;SHT30;65856;52.178;21.176;2024-03-23T13:07:19;16.70;59.61
76897;SHT30;65856;52.178;21.176;2024-03-23T13:09:47;16.64;59.75
76897;SHT30;65856;52.178;21.176;2024-03-23T13:12:15;16.61;59.74
76897;SHT30;65856;52.178;21.176;2024-03-23T13:14:40;16.61;59.89
76897;SHT30;65856;52.178;21.176;2024-03-23T13:17:07;16.59;59.82
76897;SHT30;65856;52.178;21.176;2024-03-23T13:19:33;16.56;59.83
76897;SHT30;65856;52.178;21.176;2024-03-23T13:21:59;16.56;59.42
76897;SHT30;65856;52.178;21.176;2024-03-23T13:24:26;16.55;58.96
76897;SHT30;65856;52.178;21.176;2024-03-23T13:26:53;16.54;59.00
76897;SHT30;65856;52.178;21.176;2024-03-23T13:29:19;16.53;58.83
76897;SHT30;65856;52.178;21.176;2024-03-23T13:31:46;16.50;58.60
76897;SHT30;65856;52.178;21.176;2024-03-23T13:34:12;16.47;58.27
76897;SHT30;65856;52.178;21.176;2024-03-23T13:36:40;16.46;58.11
76897;SHT30;65856;52.178;21.176;2024-03-23T13:39:09;16.47;58.49
76897;SHT30;65856;52.178;21.176;2024-03-23T13:41:41;16.46;58.76
76897;SHT30;65856;52.178;21.176;2024-03-23T13:44:09;16.43;58.29
76897;SHT30;65856;52.178;21.176;2024-03-23T13:46:36;16.41;57.68
76897;SHT30;65856;52.178;21.176;2024-03-23T13:49:03;16.38;58.13
76897;SHT30;65856;52.178;21.176;2024-03-23T13:51:29;16.38;58.06
76897;SHT30;65856;52.178;21.176;2024-03-23T13:53:55;16.38;58.25
76897;SHT30;65856;52.178;21.176;2024-03-23T13:56:24;16.34;58.08
76897;SHT30;65856;52.178;21.176;2024-03-23T13:58:50;16.33;58.40
76897;SHT30;65856;52.178;21.176;2024-03-23T14:01:15;16.32;58.19
76897;SHT30;65856;52.178;21.176;2024-03-23T14:03:42;16.31;58.00
76897;SHT30;65856;52.178;21.176;2024-03-23T14:06:08;16.27;58.19
76897;SHT30;65856;52.178;21.176;2024-03-23T14:08:34;16.25;58.49
76897;SHT30;65856;52.178;21.176;2024-03-23T14:11:04;16.21;58.97
76897;SHT30;65856;52.178;21.176;2024-03-23T14:13:29;16.18;59.40
76897;SHT30;65856;52.178;21.176;2024-03-23T14:15:55;16.14;59.21
76897;SHT30;65856;52.178;21.176;2024-03-23T14:18:21;16.12;58.77
76897;SHT30;65856;52.178;21.176;2024-03-23T14:20:51;16.09;59.08
76897;SHT30;65856;52.178;21.176;2024-03-23T14:23:18;16.06;58.76
76897;SHT30;65856;52.178;21.176;2024-03-23T14:25:43;16.04;58.81
76897;SHT30;65856;52.178;21.176;2024-03-23T14:28:10;16.00;58.55
76897;SHT30;65856;52.178;21.176;2024-03-23T14:30:40;15.97;58.76
76897;SHT30;65856;52.178;21.176;2024-03-23T14:33:06;15.94;58.74
76897;SHT30;65856;52.178;21.176;2024-03-23T14:35:32;15.90;58.78
76897;SHT30;65856;52.178;21.176;2024-03-23T14:37:58;15.88;59.03
76897;SHT30;65856;52.178;21.176;2024-03-23T14:40:24;15.85;59.32
76897;SHT30;65856;52.178;21.176;2024-03-23T14:42:52;15.82;59.45
76897;SHT30;65856;52.178;21.176;2024-03-23T14:45:19;15.77;59.86
76897;SHT30;65856;52.178;21.176;2024-03-23T14:47:46;15.74;60.24
76897;SHT30;65856;52.178;21.176;2024-03-23T14:50:12;15.70;60.54
76897;SHT30;65856;52.178;21.176;2024-03-23T14:52:40;15.66;60.83
76897;SHT30;65856;52.178;21.176;2024-03-23T14:55:08;15.63;61.33
76897;SHT30;65856;52.178;21.176;2024-03-23T14:57:34;15.60;61.63
76897;SHT30;65856;52.178;21.176;2024-03-23T15:00:00;15.59;62.00
76897;SHT30;65856;52.178;21.176;2024-03-23T15:02:26;15.56;62.44
76897;SHT30;65856;52.178;21.176;2024-03-23T15:04:53;15.53;63.93
76897;SHT30;65856;52.178;21.176;2024-03-23T15:07:19;15.49;65.83
76897;SHT30;65856;52.178;21.176;2024-03-23T15:09:44;15.43;67.32
76897;SHT30;65856;52.178;21.176;2024-03-23T15:12:10;15.36;68.23
76897;SHT30;65856;52.178;21.176;2024-03-23T15:14:35;15.31;68.40
76897;SHT30;65856;52.178;21.176;2024-03-23T15:17:01;15.26;68.98
76897;SHT30;65856;52.178;21.176;2024-03-23T15:19:29;15.21;69.49
76897;SHT30;65856;52.178;21.176;2024-03-23T15:21:55;15.15;69.99
76897;SHT30;65856;52.178;21.176;2024-03-23T15:24:21;15.09;70.98
76897;SHT30;65856;52.178;21.176;2024-03-23T15:26:47;15.02;71.97
76897;SHT30;65856;52.178;21.176;2024-03-23T15:29:14;14.89;72.33
76897;SHT30;65856;52.178;21.176;2024-03-23T15:31:43;14.80;72.71
76897;SHT30;65856;52.178;21.176;2024-03-23T15:34:08;14.70;72.48
76897;SHT30;65856;52.178;21.176;2024-03-23T15:36:37;14.61;72.41
76897;SHT30;65856;52.178;21.176;2024-03-23T15:39:04;14.53;72.56
76897;SHT30;65856;52.178;21.176;2024-03-23T15:41:32;14.41;72.90
76897;SHT30;65856;52.178;21.176;2024-03-23T15:43:59;14.31;73.38
76897;SHT30;65856;52.178;21.176;2024-03-23T15:46:24;14.21;73.87
76897;SHT30;65856;52.178;21.176;2024-03-23T15:48:50;14.10;74.46
76897;SHT30;65856;52.178;21.176;2024-03-23T15:51:16;13.97;75.07
76897;SHT30;65856;52.178;21.176;2024-03-23T15:53:43;13.83;75.43
76897;SHT30;65856;52.178;21.176;2024-03-23T15:56:10;13.74;75.86
76897;SHT30;65856;52.178;21.176;2024-03-23T15:58:35;13.67;76.26
76897;SHT30;65856;52.178;21.176;2024-03-23T16:01:01;13.57;76.43
76897;SHT30;65856;52.178;21.176;2024-03-23T16:03:34;13.49;76.49
76897;SHT30;65856;52.178;21.176;2024-03-23T16:06:00;13.41;76.63
76897;SHT30;65856;52.178;21.176;2024-03-23T16:08:28;13.35;76.71
76897;SHT30;65856;52.178;21.176;2024-03-23T16:10:59;13.30;76.99
76897;SHT30;65856;52.178;21.176;2024-03-23T16:13:25;13.28;77.22